createdAt,value
2019-04-04T00:00:25.185Z,10.03
2019-04-04T00:05:27.051Z,10.02
2019-04-04T00:10:28.980Z,10.09
2019-04-04T00:15:30.813Z,9.99
2019-04-04T00:20:32.857Z,10.10
2019-04-04T00:25:36.301Z,10.27
2019-04-04T00:30:38.296Z,10.12
2019-04-04T00:35:40.333Z,9.93
2019-04-04T00:40:42.524Z,9.70
2019-04-04T00:45:44.490Z,9.46
2019-04-04T00:50:46.325Z,8.81
2019-04-04T00:55:48.205Z,8.54
2019-04-04T01:00:50.110Z,8.44
2019-04-04T01:05:52.255Z,8.28
2019-04-04T01:10:54.113Z,8.16
2019-04-04T01:15:55.917Z,7.94
2019-04-04T01:20:57.840Z,7.84
2019-04-04T01:26:01.341Z,7.80
2019-04-04T01:31:03.940Z,7.74
2019-04-04T01:36:05.795Z,7.74
2019-04-04T01:41:07.635Z,7.68
2019-04-04T01:46:09.570Z,7.64
2019-04-04T01:51:11.404Z,7.54
2019-04-04T01:56:14.368Z,7.58
2019-04-04T02:01:17.035Z,7.30
2019-04-04T02:06:19.005Z,7.50
2019-04-04T02:11:20.929Z,7.56
2019-04-04T02:16:23.768Z,7.50
2019-04-04T02:21:28.472Z,7.33
2019-04-04T02:26:29.316Z,7.30
2019-04-04T02:31:35.029Z,7.06
2019-04-04T02:36:36.836Z,6.71
2019-04-04T02:41:38.751Z,6.49
2019-04-04T02:46:44.461Z,6.42
2019-04-04T02:51:44.620Z,6.31
2019-04-04T02:56:46.561Z,6.22
2019-04-04T03:01:48.634Z,6.04
2019-04-04T03:06:50.551Z,6.07
2019-04-04T03:11:54.111Z,6.09
2019-04-04T03:16:57.732Z,6.02
2019-04-04T03:22:00.934Z,5.99
2019-04-04T03:27:02.883Z,5.82
2019-04-04T03:32:04.706Z,5.69
2019-04-04T03:37:08.956Z,5.49
2019-04-04T03:42:10.276Z,5.50
2019-04-04T03:47:12.168Z,5.43
2019-04-04T03:52:14.087Z,5.39
2019-04-04T03:57:16.190Z,5.29
2019-04-04T04:02:18.741Z,5.23
2019-04-04T04:07:21.942Z,5.36
2019-04-04T04:12:23.785Z,5.50
2019-04-04T04:17:25.598Z,5.49
2019-04-04T04:22:27.403Z,5.58
2019-04-04T04:27:29.262Z,5.67
2019-04-04T04:32:31.161Z,5.64
2019-04-04T04:37:32.978Z,5.74
2019-04-04T04:42:34.809Z,6.04
2019-04-04T04:47:36.622Z,6.10
2019-04-04T04:52:38.494Z,6.11
2019-04-04T04:57:40.378Z,6.20
2019-04-04T05:02:42.309Z,6.37
2019-04-04T05:07:44.115Z,6.68
2019-04-04T05:12:45.950Z,6.86
2019-04-04T05:17:47.758Z,6.65
2019-04-04T05:22:50.588Z,6.80
2019-04-04T05:27:52.421Z,6.93
2019-04-04T05:32:56.392Z,7.34
2019-04-04T05:37:58.170Z,7.32
2019-04-04T05:43:00.115Z,7.37
2019-04-04T05:48:01.950Z,7.45
2019-04-04T05:53:04.841Z,7.46
2019-04-04T05:58:06.829Z,7.34
2019-04-04T06:03:08.660Z,7.40
2019-04-04T06:08:10.490Z,7.42
2019-04-04T06:13:12.304Z,7.35
2019-04-04T06:18:14.121Z,7.27
2019-04-04T06:23:15.972Z,7.63
2019-04-04T06:28:17.799Z,7.94
2019-04-04T06:33:19.663Z,8.07
2019-04-04T06:38:23.503Z,7.99
2019-04-04T06:43:25.192Z,8.07
2019-04-04T06:48:29.007Z,8.38
2019-04-04T06:53:30.780Z,8.60
2019-04-04T06:58:32.629Z,8.24
2019-04-04T07:03:34.484Z,7.92
2019-04-04T07:08:36.302Z,7.79
2019-04-04T07:13:42.741Z,7.54
2019-04-04T07:18:42.990Z,7.44
2019-04-04T07:23:45.588Z,7.95
2019-04-04T07:28:49.641Z,8.56
2019-04-04T07:33:51.202Z,8.80
2019-04-04T07:38:54.227Z,8.28
2019-04-04T07:43:58.520Z,8.51
2019-04-04T07:48:59.896Z,8.45
2019-04-04T07:54:01.963Z,8.81
2019-04-04T07:59:05.488Z,9.39
2019-04-04T08:04:07.439Z,8.33
2019-04-04T08:09:09.352Z,8.97
2019-04-04T08:14:11.290Z,9.02
2019-04-04T08:19:13.115Z,9.55
2019-04-04T08:24:15.144Z,9.54
2019-04-04T08:29:18.284Z,9.91
2019-04-04T08:34:20.121Z,9.50
2019-04-04T08:39:21.938Z,9.92
2019-04-04T08:44:24.808Z,10.56
2019-04-04T08:49:26.629Z,10.05
2019-04-04T08:54:28.436Z,9.73
2019-04-04T08:59:30.357Z,10.28
2019-04-04T09:04:32.426Z,10.27
2019-04-04T09:09:34.775Z,11.45
2019-04-04T09:14:36.890Z,11.74
2019-04-04T09:19:38.922Z,12.05
2019-04-04T09:24:40.747Z,11.72
2019-04-04T09:29:42.570Z,10.48
2019-04-04T09:34:44.541Z,10.73
2019-04-04T09:39:47.368Z,10.56
2019-04-04T09:44:50.384Z,10.73
2019-04-04T09:49:52.197Z,11.77
2019-04-04T09:54:54.053Z,11.75
2019-04-04T09:59:57.063Z,11.06
2019-04-04T10:04:59.301Z,11.56
2019-04-04T10:10:02.208Z,11.80
2019-04-04T10:15:06.052Z,11.84
2019-04-04T10:20:09.176Z,11.98
2019-04-04T10:25:11.395Z,12.61
2019-04-04T10:30:13.737Z,12.40
2019-04-04T10:35:15.605Z,13.00
2019-04-04T10:40:17.740Z,13.31
2019-04-04T10:45:19.605Z,13.88
2019-04-04T10:50:21.515Z,13.68
2019-04-04T10:55:23.437Z,13.70
2019-04-04T11:00:25.681Z,13.82
2019-04-04T11:05:27.522Z,14.22
2019-04-04T11:10:29.354Z,14.40
2019-04-04T11:15:31.305Z,15.33
2019-04-04T11:20:33.124Z,14.25
2019-04-04T11:25:35.050Z,14.14
2019-04-04T11:30:36.991Z,15.18
2019-04-04T11:35:38.843Z,14.81
2019-04-04T11:40:40.662Z,15.45
2019-04-04T11:45:42.529Z,16.86
2019-04-04T11:50:44.445Z,17.36
2019-04-04T11:55:46.279Z,17.72
2019-04-04T12:00:49.559Z,17.43
2019-04-04T12:05:51.431Z,18.51
2019-04-04T12:10:53.258Z,18.41
2019-04-04T12:15:55.118Z,17.44
2019-04-04T12:20:57.180Z,17.23
2019-04-04T12:25:59.133Z,17.89
2019-04-04T12:31:01.073Z,16.68
2019-04-04T12:36:02.935Z,17.03
2019-04-04T12:41:04.787Z,17.39
2019-04-04T12:46:06.870Z,18.21
2019-04-04T12:51:08.903Z,17.58
2019-04-04T12:56:10.755Z,18.58
2019-04-04T13:01:12.623Z,18.54
2019-04-04T13:06:14.565Z,19.27
2019-04-04T13:11:16.601Z,18.43
2019-04-04T13:16:18.472Z,18.60
2019-04-04T13:21:21.678Z,19.29
2019-04-04T13:26:23.619Z,19.15
2019-04-04T13:31:25.456Z,19.34
2019-04-04T13:36:27.683Z,19.51
2019-04-04T13:41:29.490Z,19.02
2019-04-04T13:46:31.510Z,18.57
2019-04-04T13:51:34.376Z,18.25
2019-04-04T13:56:36.210Z,18.48
2019-04-04T14:01:38.042Z,18.46
2019-04-04T14:06:39.954Z,18.92
2019-04-04T14:11:42.181Z,18.82
2019-04-04T14:16:44.134Z,18.62
2019-04-04T14:21:46.046Z,18.64
2019-04-04T14:26:47.871Z,19.16
2019-04-04T14:31:49.707Z,18.58
2019-04-04T14:36:51.602Z,18.15
2019-04-04T14:41:53.401Z,18.97
2019-04-04T14:46:56.259Z,18.97
2019-04-04T14:51:58.114Z,18.68
2019-04-04T14:57:00.060Z,18.91
2019-04-04T15:02:02.007Z,18.33
2019-04-04T15:07:03.953Z,18.23
2019-04-04T15:12:05.762Z,17.38
2019-04-04T15:17:07.588Z,19.05
2019-04-04T15:22:10.418Z,18.07
2019-04-04T15:27:12.350Z,16.69
2019-04-04T15:32:14.278Z,16.81
2019-04-04T15:37:16.120Z,16.10
2019-04-04T15:42:17.984Z,15.91
2019-04-04T15:47:19.820Z,15.84
2019-04-04T15:52:21.692Z,15.96
2019-04-04T15:57:23.550Z,15.95
2019-04-04T16:02:25.368Z,15.44
2019-04-04T16:07:28.014Z,15.80
2019-04-04T16:12:31.155Z,16.00
2019-04-04T16:17:32.991Z,17.73
2019-04-04T16:22:35.640Z,17.42
2019-04-04T16:27:38.581Z,16.18
2019-04-04T16:32:40.618Z,15.65
2019-04-04T16:37:42.611Z,15.39
2019-04-04T16:42:44.700Z,15.04
2019-04-04T16:47:46.625Z,14.98
2019-04-04T16:52:48.919Z,15.34
2019-04-04T16:57:50.943Z,15.49
2019-04-04T17:02:54.027Z,15.16
2019-04-04T17:07:55.887Z,14.71
2019-04-04T17:12:57.721Z,14.33
2019-04-04T17:18:00.040Z,14.17
2019-04-04T17:23:01.983Z,13.47
2019-04-04T17:28:04.498Z,12.75
2019-04-04T17:33:06.981Z,12.33
2019-04-04T17:38:08.903Z,11.80
2019-04-04T17:43:10.710Z,11.48
2019-04-04T17:48:12.857Z,11.13
2019-04-04T17:53:14.903Z,10.84
2019-04-04T17:58:18.390Z,10.62
2019-04-04T18:03:20.389Z,10.51
2019-04-04T18:08:22.224Z,10.43
2019-04-04T18:13:24.153Z,10.28
2019-04-04T18:18:26.091Z,10.26
2019-04-04T18:23:27.998Z,10.12
2019-04-04T18:28:29.844Z,9.99
2019-04-04T18:33:31.657Z,9.89
2019-04-04T18:38:33.605Z,9.81
2019-04-04T18:43:35.423Z,9.76
2019-04-04T18:48:37.347Z,9.72
2019-04-04T18:53:39.173Z,9.53
2019-04-04T18:58:41.139Z,9.37
2019-04-04T19:03:42.988Z,9.27
2019-04-04T19:08:44.841Z,9.23
2019-04-04T19:13:47.532Z,9.13
2019-04-04T19:18:49.371Z,8.92
2019-04-04T19:23:51.783Z,8.77
2019-04-04T19:28:53.755Z,8.66
2019-04-04T19:33:55.575Z,8.54
2019-04-04T19:38:57.450Z,8.49
2019-04-04T19:43:59.260Z,8.42
2019-04-04T19:49:01.120Z,8.35
2019-04-04T19:54:03.271Z,8.29
2019-04-04T19:59:06.157Z,8.17
2019-04-04T20:04:07.987Z,8.07
2019-04-04T20:09:09.910Z,7.94
2019-04-04T20:14:11.718Z,7.98
2019-04-04T20:19:13.533Z,7.87
2019-04-04T20:24:15.477Z,7.81
2019-04-04T20:29:17.429Z,7.76
2019-04-04T20:34:19.240Z,7.78
2019-04-04T20:39:21.079Z,7.75
2019-04-04T20:44:22.998Z,7.62
2019-04-04T20:49:24.824Z,7.57
2019-04-04T20:54:26.704Z,7.58
2019-04-04T20:59:28.535Z,7.55
2019-04-04T21:04:30.357Z,7.55
2019-04-04T21:09:32.189Z,7.52
2019-04-04T21:14:34.001Z,7.56
2019-04-04T21:19:35.857Z,7.65
2019-04-04T21:24:37.783Z,7.72
2019-04-04T21:29:40.886Z,7.77
2019-04-04T21:34:43.397Z,7.80
2019-04-04T21:39:45.250Z,7.92
2019-04-04T21:44:47.080Z,7.91
2019-04-04T21:49:49.009Z,7.94
2019-04-04T21:54:50.954Z,7.96
2019-04-04T21:59:53.059Z,7.98
2019-04-04T22:04:54.869Z,8.05
2019-04-04T22:09:56.689Z,8.02
2019-04-04T22:14:58.517Z,8.07
2019-04-04T22:20:00.561Z,8.05
2019-04-04T22:25:02.606Z,8.02
2019-04-04T22:30:05.224Z,8.02
2019-04-04T22:35:07.255Z,8.03
2019-04-04T22:40:09.508Z,8.00
2019-04-04T22:45:11.817Z,7.88
2019-04-04T22:50:13.984Z,7.81
2019-04-04T22:55:15.898Z,8.05
2019-04-04T23:00:18.035Z,8.14
2019-04-04T23:05:19.895Z,8.17
2019-04-04T23:10:21.753Z,8.17
2019-04-04T23:15:23.584Z,8.23
2019-04-04T23:20:25.464Z,8.27
2019-04-04T23:25:27.309Z,8.35
2019-04-04T23:30:29.130Z,8.45
2019-04-04T23:35:31.254Z,8.39
2019-04-04T23:40:33.489Z,8.41
2019-04-04T23:45:35.396Z,8.44
2019-04-04T23:50:37.263Z,8.44
2019-04-04T23:55:39.125Z,8.59
